sensor_id;sensor_type;location;lat;lon;timestamp;pressure;altitude;pressure_sealevel;temperature;humidity
73671;BME280;61968;48.178;11.566;2022-10-19T00:00:30;96705.38;;;16.01;48.02
73671;BME280;61968;48.178;11.566;2022-10-19T00:02:57;96703.34;;;16.08;47.87
73671;BME280;61968;48.178;11.566;2022-10-19T00:05:23;96703.34;;;16.08;47.93
73671;BME280;61968;48.178;11.566;2022-10-19T00:07:50;96701.50;;;16.08;47.92
73671;BME280;61968;48.178;11.566;2022-10-19T00:10:16;96703.28;;;16.03;47.92
73671;BME280;61968;48.178;11.566;2022-10-19T00:12:43;96703.84;;;16.05;47.97
73671;BME280;61968;48.178;11.566;2022-10-19T00:15:09;96711.03;;;16.04;48.06
73671;BME280;61968;48.178;11.566;2022-10-19T00:17:37;96700.53;;;15.98;48.11
73671;BME280;61968;48.178;11.566;2022-10-19T00:20:05;96705.97;;;16.03;48.15
73671;BME280;61968;48.178;11.566;2022-10-19T00:22:31;96701.44;;;16.03;48.19
73671;BME280;61968;48.178;11.566;2022-10-19T00:24:58;96710.72;;;16.01;48.21
73671;BME280;61968;48.178;11.566;2022-10-19T00:27:25;96702.03;;;15.94;48.25
73671;BME280;61968;48.178;11.566;2022-10-19T00:29:51;96704.59;;;15.89;48.49
73671;BME280;61968;48.178;11.566;2022-10-19T00:32:18;96708.56;;;15.86;48.46
73671;BME280;61968;48.178;11.566;2022-10-19T00:34:46;96704.03;;;15.86;48.43
73671;BME280;61968;48.178;11.566;2022-10-19T00:37:12;96705.66;;;15.88;48.20
73671;BME280;61968;48.178;11.566;2022-10-19T00:39:39;96702.75;;;15.89;48.45
73671;BME280;61968;48.178;11.566;2022-10-19T00:42:09;96702.91;;;15.82;48.48
73671;BME280;61968;48.178;11.566;2022-10-19T00:44:57;96698.63;;;15.81;48.64
73671;BME280;61968;48.178;11.566;2022-10-19T00:47:24;96700.47;;;15.81;48.56
73671;BME280;61968;48.178;11.566;2022-10-19T00:49:52;96701.75;;;15.78;48.57
73671;BME280;61968;48.178;11.566;2022-10-19T00:52:21;96693.28;;;15.81;48.57
73671;BME280;61968;48.178;11.566;2022-10-19T00:54:49;96702.41;;;15.85;48.60
73671;BME280;61968;48.178;11.566;2022-10-19T00:57:17;96701.13;;;15.88;48.42
73671;BME280;61968;48.178;11.566;2022-10-19T00:59:44;96698.47;;;15.88;48.57
73671;BME280;61968;48.178;11.566;2022-10-19T01:02:12;96699.75;;;15.85;48.54
73671;BME280;61968;48.178;11.566;2022-10-19T01:04:42;96691.75;;;15.85;48.53
73671;BME280;61968;48.178;11.566;2022-10-19T01:07:11;96692.56;;;15.86;48.51
73671;BME280;61968;48.178;11.566;2022-10-19T01:09:38;96691.75;;;15.85;48.68
73671;BME280;61968;48.178;11.566;2022-10-19T01:12:10;96698.06;;;15.79;48.67
73671;BME280;61968;48.178;11.566;2022-10-19T01:14:49;96693.28;;;15.81;48.71
73671;BME280;61968;48.178;11.566;2022-10-19T01:17:26;96693.19;;;15.76;48.90
73671;BME280;61968;48.178;11.566;2022-10-19T01:23:02;96689.78;;;15.81;48.76
73671;BME280;61968;48.178;11.566;2022-10-19T01:25:40;96684.22;;;15.82;48.84
73671;BME280;61968;48.178;11.566;2022-10-19T01:28:28;96681.03;;;15.69;49.18
73671;BME280;61968;48.178;11.566;2022-10-19T01:31:00;96676.53;;;15.69;48.77
73671;BME280;61968;48.178;11.566;2022-10-19T01:33:38;96673.63;;;15.71;48.85
73671;BME280;61968;48.178;11.566;2022-10-19T01:36:16;96673.72;;;15.76;48.66
73671;BME280;61968;48.178;11.566;2022-10-19T01:38:49;96674.22;;;15.73;48.90
73671;BME280;61968;48.178;11.566;2022-10-19T01:41:20;96674.44;;;15.71;48.78
73671;BME280;61968;48.178;11.566;2022-10-19T01:43:57;96663.44;;;15.68;48.95
73671;BME280;61968;48.178;11.566;2022-10-19T01:46:30;96671.44;;;15.68;48.93
73671;BME280;61968;48.178;11.566;2022-10-19T01:49:02;96672.72;;;15.65;48.95
73671;BME280;61968;48.178;11.566;2022-10-19T01:51:33;96673.34;;;15.55;49.00
73671;BME280;61968;48.178;11.566;2022-10-19T01:54:06;96672.31;;;15.56;49.13
73671;BME280;61968;48.178;11.566;2022-10-19T01:56:36;96675.44;;;15.53;49.14
73671;BME280;61968;48.178;11.566;2022-10-19T01:59:05;96670.78;;;15.60;49.21
73671;BME280;61968;48.178;11.566;2022-10-19T02:01:37;96682.00;;;15.62;48.91
73671;BME280;61968;48.178;11.566;2022-10-19T02:04:06;96671.59;;;15.61;49.15
73671;BME280;61968;48.178;11.566;2022-10-19T02:06:33;96680.06;;;15.58;49.05
73671;BME280;61968;48.178;11.566;2022-10-19T02:09:00;96680.88;;;15.58;49.12
73671;BME280;61968;48.178;11.566;2022-10-19T02:11:28;96681.69;;;15.59;49.08
73671;BME280;61968;48.178;11.566;2022-10-19T02:13:57;96678.78;;;15.60;48.95
73671;BME280;61968;48.178;11.566;2022-10-19T02:16:31;96677.97;;;15.60;48.92
73671;BME280;61968;48.178;11.566;2022-10-19T02:19:02;96680.88;;;15.58;49.10
73671;BME280;61968;48.178;11.566;2022-10-19T02:21:28;96671.28;;;15.57;48.98
73671;BME280;61968;48.178;11.566;2022-10-19T02:23:56;96673.59;;;15.54;49.20
73671;BME280;61968;48.178;11.566;2022-10-19T02:26:23;96676.25;;;15.54;49.09
73671;BME280;61968;48.178;11.566;2022-10-19T02:28:49;96672.56;;;15.55;49.01
73671;BME280;61968;48.178;11.566;2022-10-19T02:31:16;96663.81;;;15.59;48.88
73671;BME280;61968;48.178;11.566;2022-10-19T02:33:43;96663.81;;;15.59;48.93
73671;BME280;61968;48.178;11.566;2022-10-19T02:36:11;96651.31;;;15.60;48.77
73671;BME280;61968;48.178;11.566;2022-10-19T02:38:37;96659.22;;;15.55;48.75
73671;BME280;61968;48.178;11.566;2022-10-19T02:41:09;96647.75;;;15.54;48.83
73671;BME280;61968;48.178;11.566;2022-10-19T02:43:41;96648.00;;;15.53;48.82
73671;BME280;61968;48.178;11.566;2022-10-19T02:46:12;96648.56;;;15.55;48.73
73671;BME280;61968;48.178;11.566;2022-10-19T02:48:41;96647.19;;;15.52;48.75
73671;BME280;61968;48.178;11.566;2022-10-19T02:51:29;96653.22;;;15.48;48.78
73671;BME280;61968;48.178;11.566;2022-10-19T02:53:55;96657.25;;;15.50;48.77
73671;BME280;61968;48.178;11.566;2022-10-19T02:56:22;96658.06;;;15.51;48.73
73671;BME280;61968;48.178;11.566;2022-10-19T02:58:48;96658.53;;;15.48;48.75
73671;BME280;61968;48.178;11.566;2022-10-19T03:01:15;96659.13;;;15.50;48.69
73671;BME280;61968;48.178;11.566;2022-10-19T03:03:42;96653.22;;;15.48;48.73
73671;BME280;61968;48.178;11.566;2022-10-19T03:06:08;96649.03;;;15.52;48.67
73671;BME280;61968;48.178;11.566;2022-10-19T03:08:36;96645.31;;;15.53;48.58
73671;BME280;61968;48.178;11.566;2022-10-19T03:11:03;96648.25;;;15.51;48.46
73671;BME280;61968;48.178;11.566;2022-10-19T03:13:33;96642.22;;;15.44;48.53
73671;BME280;61968;48.178;11.566;2022-10-19T03:16:05;96650.69;;;15.41;48.63
73671;BME280;61968;48.178;11.566;2022-10-19T03:18:31;96642.59;;;15.36;48.84
73671;BME280;61968;48.178;11.566;2022-10-19T03:21:01;96641.09;;;15.40;48.62
73671;BME280;61968;48.178;11.566;2022-10-19T03:23:28;96645.38;;;15.41;48.48
73671;BME280;61968;48.178;11.566;2022-10-19T03:25:56;96644.31;;;15.42;48.63
73671;BME280;61968;48.178;11.566;2022-10-19T03:28:23;96644.09;;;15.44;48.57
73671;BME280;61968;48.178;11.566;2022-10-19T03:30:49;96639.25;;;15.40;48.55
73671;BME280;61968;48.178;11.566;2022-10-19T03:33:16;96642.72;;;15.41;48.48
73671;BME280;61968;48.178;11.566;2022-10-19T03:35:42;96638.97;;;15.42;48.39
73671;BME280;61968;48.178;11.566;2022-10-19T03:38:09;96639.81;;;15.43;48.44
73671;BME280;61968;48.178;11.566;2022-10-19T03:40:35;96635.03;;;15.45;48.37
73671;BME280;61968;48.178;11.566;2022-10-19T03:43:03;96629.38;;;15.41;48.31
73671;BME280;61968;48.178;11.566;2022-10-19T03:45:30;96625.91;;;15.40;48.31
73671;BME280;61968;48.178;11.566;2022-10-19T03:47:56;96619.78;;;15.40;48.24
73671;BME280;61968;48.178;11.566;2022-10-19T03:50:23;96616.31;;;15.39;48.16
73671;BME280;61968;48.178;11.566;2022-10-19T03:52:49;96622.28;;;15.47;48.11
73671;BME280;61968;48.178;11.566;2022-10-19T03:55:16;96623.34;;;15.46;48.19
73671;BME280;61968;48.178;11.566;2022-10-19T03:57:43;96619.78;;;15.40;48.22
73671;BME280;61968;48.178;11.566;2022-10-19T04:00:12;96618.16;;;15.39;48.35
73671;BME280;61968;48.178;11.566;2022-10-19T04:02:39;96618.97;;;15.39;48.32
73671;BME280;61968;48.178;11.566;2022-10-19T04:05:06;96615.00;;;15.42;48.45
73671;BME280;61968;48.178;11.566;2022-10-19T04:07:33;96620.59;;;15.40;48.34
73671;BME280;61968;48.178;11.566;2022-10-19T04:09:59;96618.97;;;15.39;48.34
73671;BME280;61968;48.178;11.566;2022-10-19T04:12:26;96625.59;;;15.37;48.34
73671;BME280;61968;48.178;11.566;2022-10-19T04:14:52;96619.22;;;15.38;48.18
73671;BME280;61968;48.178;11.566;2022-10-19T04:17:20;96613.88;;;15.38;48.32
73671;BME280;61968;48.178;11.566;2022-10-19T04:19:47;96617.34;;;15.38;48.29
73671;BME280;61968;48.178;11.566;2022-10-19T04:22:14;96616.22;;;15.34;48.27
73671;BME280;61968;48.178;11.566;2022-10-19T04:24:41;96620.25;;;15.37;48.11
73671;BME280;61968;48.178;11.566;2022-10-19T04:27:07;96624.22;;;15.34;48.26
73671;BME280;61968;48.178;11.566;2022-10-19T04:29:34;96615.09;;;15.30;48.41
73671;BME280;61968;48.178;11.566;2022-10-19T04:32:00;96612.00;;;15.38;48.17
73671;BME280;61968;48.178;11.566;2022-10-19T04:34:28;96616.47;;;15.50;47.80
73671;BME280;61968;48.178;11.566;2022-10-19T04:36:54;96613.34;;;15.53;47.79
73671;BME280;61968;48.178;11.566;2022-10-19T04:39:23;96612.44;;;15.47;47.91
73671;BME280;61968;48.178;11.566;2022-10-19T04:41:49;96602.50;;;15.43;47.99
73671;BME280;61968;48.178;11.566;2022-10-19T04:44:16;96611.47;;;15.36;48.40
73671;BME280;61968;48.178;11.566;2022-10-19T04:46:42;96600.81;;;15.36;48.13
73671;BME280;61968;48.178;11.566;2022-10-19T04:49:09;96612.50;;;15.35;48.37
73671;BME280;61968;48.178;11.566;2022-10-19T04:51:37;96614.13;;;15.36;48.41
73671;BME280;61968;48.178;11.566;2022-10-19T04:54:03;96605.88;;;15.38;48.25
73671;BME280;61968;48.178;11.566;2022-10-19T04:56:30;96599.75;;;15.37;48.34
73671;BME280;61968;48.178;11.566;2022-10-19T04:58:58;96595.47;;;15.36;48.50
73671;BME280;61968;48.178;11.566;2022-10-19T05:01:26;96599.44;;;15.34;48.58
73671;BME280;61968;48.178;11.566;2022-10-19T05:03:53;96598.63;;;15.33;48.59
73671;BME280;61968;48.178;11.566;2022-10-19T05:06:20;96595.00;;;15.39;48.53
73671;BME280;61968;48.178;11.566;2022-10-19T05:08:48;96593.94;;;15.40;48.54
73671;BME280;61968;48.178;11.566;2022-10-19T05:11:15;96596.28;;;15.37;48.42
73671;BME280;61968;48.178;11.566;2022-10-19T05:13:43;96591.66;;;15.32;48.56
73671;BME280;61968;48.178;11.566;2022-10-19T05:16:11;96585.84;;;15.35;48.48
73671;BME280;61968;48.178;11.566;2022-10-19T05:18:38;96588.03;;;15.38;48.56
73671;BME280;61968;48.178;11.566;2022-10-19T05:21:07;96592.34;;;15.39;48.33
73671;BME280;61968;48.178;11.566;2022-10-19T05:23:34;96592.88;;;15.41;48.24
73671;BME280;61968;48.178;11.566;2022-10-19T05:26:04;96590.16;;;15.36;48.12
73671;BME280;61968;48.178;11.566;2022-10-19T05:28:31;96578.53;;;15.43;47.94
73671;BME280;61968;48.178;11.566;2022-10-19T05:31:04;96580.13;;;15.44;47.85
73671;BME280;61968;48.178;11.566;2022-10-19T05:33:32;96583.84;;;15.43;47.97
73671;BME280;61968;48.178;11.566;2022-10-19T05:35:58;96577.38;;;15.38;47.97
73671;BME280;61968;48.178;11.566;2022-10-19T05:38:25;96582.28;;;15.30;48.31
73671;BME280;61968;48.178;11.566;2022-10-19T05:40:51;96579.88;;;15.28;48.48
73671;BME280;61968;48.178;11.566;2022-10-19T05:43:19;96579.63;;;15.30;48.50
73671;BME280;61968;48.178;11.566;2022-10-19T05:45:46;96586.59;;;15.31;48.54
73671;BME280;61968;48.178;11.566;2022-10-19T05:48:12;96588.91;;;15.27;48.56
73671;BME280;61968;48.178;11.566;2022-10-19T05:50:38;96591.09;;;15.30;48.49
73671;BME280;61968;48.178;11.566;2022-10-19T05:53:05;96593.50;;;15.32;48.55
73671;BME280;61968;48.178;11.566;2022-10-19T05:55:33;96594.81;;;15.29;48.65
73671;BME280;61968;48.178;11.566;2022-10-19T05:57:59;96591.91;;;15.31;48.69
73671;BME280;61968;48.178;11.566;2022-10-19T06:00:27;96592.94;;;15.30;48.76
73671;BME280;61968;48.178;11.566;2022-10-19T06:02:54;96595.06;;;15.28;48.75
73671;BME280;61968;48.178;11.566;2022-10-19T06:05:20;96604.44;;;15.30;49.22
73671;BME280;61968;48.178;11.566;2022-10-19T06:07:47;96602.38;;;15.83;47.62
73671;BME280;61968;48.178;11.566;2022-10-19T06:10:13;96600.59;;;16.22;46.52
73671;BME280;61968;48.178;11.566;2022-10-19T06:12:40;96610.38;;;16.72;45.60
73671;BME280;61968;48.178;11.566;2022-10-19T06:15:07;96613.16;;;16.83;45.06
73671;BME280;61968;48.178;11.566;2022-10-19T06:17:35;96611.44;;;16.93;45.09
73671;BME280;61968;48.178;11.566;2022-10-19T06:20:02;96607.00;;;17.04;44.63
73671;BME280;61968;48.178;11.566;2022-10-19T06:22:28;96604.75;;;16.96;44.88
73671;BME280;61968;48.178;11.566;2022-10-19T06:24:55;96606.63;;;16.95;44.95
73671;BME280;61968;48.178;11.566;2022-10-19T06:27:21;96608.50;;;16.95;44.81
73671;BME280;61968;48.178;11.566;2022-10-19T06:29:48;96609.31;;;16.95;44.73
73671;BME280;61968;48.178;11.566;2022-10-19T06:32:15;96617.09;;;16.97;44.70
73671;BME280;61968;48.178;11.566;2022-10-19T06:34:42;96617.63;;;16.99;44.54
73671;BME280;61968;48.178;11.566;2022-10-19T06:37:09;96622.66;;;16.95;44.81
73671;BME280;61968;48.178;11.566;2022-10-19T06:39:35;96624.28;;;17.18;44.22
73671;BME280;61968;48.178;11.566;2022-10-19T06:42:02;96626.19;;;17.45;43.85
73671;BME280;61968;48.178;11.566;2022-10-19T06:44:28;96626.00;;;17.57;43.27
73671;BME280;61968;48.178;11.566;2022-10-19T06:46:55;96621.28;;;17.64;43.33
73671;BME280;61968;48.178;11.566;2022-10-19T06:49:22;96626.28;;;17.33;43.76
73671;BME280;61968;48.178;11.566;2022-10-19T06:51:54;96635.28;;;17.00;44.45
73671;BME280;61968;48.178;11.566;2022-10-19T06:54:20;96640.00;;;16.71;44.93
73671;BME280;61968;48.178;11.566;2022-10-19T06:56:49;96633.78;;;16.48;45.34
73671;BME280;61968;48.178;11.566;2022-10-19T06:59:16;96635.69;;;16.31;45.82
73671;BME280;61968;48.178;11.566;2022-10-19T07:01:42;96631.50;;;16.18;46.02
73671;BME280;61968;48.178;11.566;2022-10-19T07:04:09;96628.91;;;16.06;46.28
73671;BME280;61968;48.178;11.566;2022-10-19T07:06:35;96637.44;;;15.75;46.92
73671;BME280;61968;48.178;11.566;2022-10-19T07:09:03;96637.84;;;15.83;46.59
73671;BME280;61968;48.178;11.566;2022-10-19T07:11:30;96639.06;;;15.76;46.79
73671;BME280;61968;48.178;11.566;2022-10-19T07:13:56;96647.88;;;15.76;46.88
73671;BME280;61968;48.178;11.566;2022-10-19T07:16:23;96639.69;;;15.66;47.13
73671;BME280;61968;48.178;11.566;2022-10-19T07:18:51;96633.31;;;15.67;47.16
73671;BME280;61968;48.178;11.566;2022-10-19T07:21:20;96640.63;;;15.60;47.49
73671;BME280;61968;48.178;11.566;2022-10-19T07:23:47;96632.09;;;15.58;47.61
73671;BME280;61968;48.178;11.566;2022-10-19T07:26:16;96633.69;;;15.59;47.59
73671;BME280;61968;48.178;11.566;2022-10-19T07:28:46;96636.69;;;15.62;47.57
73671;BME280;61968;48.178;11.566;2022-10-19T07:31:15;96634.66;;;15.53;47.80
73671;BME280;61968;48.178;11.566;2022-10-19T07:33:44;96633.59;;;15.54;47.86
73671;BME280;61968;48.178;11.566;2022-10-19T07:36:11;96627.56;;;15.58;47.68
73671;BME280;61968;48.178;11.566;2022-10-19T07:38:39;96631.69;;;15.66;47.76
73671;BME280;61968;48.178;11.566;2022-10-19T07:41:07;96635.41;;;15.65;47.75
73671;BME280;61968;48.178;11.566;2022-10-19T07:43:35;96637.38;;;15.70;47.51
73671;BME280;61968;48.178;11.566;2022-10-19T07:46:04;96637.00;;;15.66;47.74
73671;BME280;61968;48.178;11.566;2022-10-19T07:48:31;96631.34;;;15.62;47.69
73671;BME280;61968;48.178;11.566;2022-10-19T07:50:59;96635.41;;;15.65;47.64
73671;BME280;61968;48.178;11.566;2022-10-19T07:53:26;96635.09;;;15.61;47.99
73671;BME280;61968;48.178;11.566;2022-10-19T07:55:53;96635.31;;;15.60;47.93
73671;BME280;61968;48.178;11.566;2022-10-19T07:58:19;96633.13;;;15.57;48.12
73671;BME280;61968;48.178;11.566;2022-10-19T08:00:50;96632.09;;;15.58;48.33
73671;BME280;61968;48.178;11.566;2022-10-19T08:03:17;96635.31;;;15.60;47.97
73671;BME280;61968;48.178;11.566;2022-10-19T08:05:43;96637.00;;;15.66;48.07
73671;BME280;61968;48.178;11.566;2022-10-19T08:08:10;96633.97;;;15.74;47.59
73671;BME280;61968;48.178;11.566;2022-10-19T08:10:36;96642.28;;;15.78;47.60
73671;BME280;61968;48.178;11.566;2022-10-19T08:13:03;96637.91;;;15.72;47.84
73671;BME280;61968;48.178;11.566;2022-10-19T08:15:29;96637.44;;;15.58;47.99
73671;BME280;61968;48.178;11.566;2022-10-19T08:17:58;96640.00;;;15.53;48.43
73671;BME280;61968;48.178;11.566;2022-10-19T08:20:25;96643.94;;;15.50;48.67
73671;BME280;61968;48.178;11.566;2022-10-19T08:22:51;96647.19;;;15.52;48.42
73671;BME280;61968;48.178;11.566;2022-10-19T08:25:18;96650.19;;;15.56;48.38
73671;BME280;61968;48.178;11.566;2022-10-19T08:27:44;96641.94;;;15.57;48.44
73671;BME280;61968;48.178;11.566;2022-10-19T08:30:11;96641.13;;;15.57;48.24
73671;BME280;61968;48.178;11.566;2022-10-19T08:32:37;96642.75;;;15.58;48.41
73671;BME280;61968;48.178;11.566;2022-10-19T08:35:08;96642.06;;;15.51;48.64
73671;BME280;61968;48.178;11.566;2022-10-19T08:37:35;96643.94;;;15.50;48.68
73671;BME280;61968;48.178;11.566;2022-10-19T08:40:02;96649.28;;;15.50;48.60
73671;BME280;61968;48.178;11.566;2022-10-19T08:42:33;96647.41;;;15.51;48.71
73671;BME280;61968;48.178;11.566;2022-10-19T08:45:24;96644.19;;;15.49;49.03
73671;BME280;61968;48.178;11.566;2022-10-19T08:47:58;96639.41;;;15.51;48.83
73671;BME280;61968;48.178;11.566;2022-10-19T08:50:28;96637.31;;;15.53;48.75
73671;BME280;61968;48.178;11.566;2022-10-19T08:53:01;96640.00;;;15.53;48.60
73671;BME280;61968;48.178;11.566;2022-10-19T08:55:37;96636.19;;;15.49;48.65
73671;BME280;61968;48.178;11.566;2022-10-19T08:58:17;96633.75;;;15.47;48.70
73671;BME280;61968;48.178;11.566;2022-10-19T09:00:51;96637.69;;;15.45;48.92
73671;BME280;61968;48.178;11.566;2022-10-19T09:03:29;96633.34;;;15.38;48.96
73671;BME280;61968;48.178;11.566;2022-10-19T09:06:04;96640.25;;;15.51;48.56
73671;BME280;61968;48.178;11.566;2022-10-19T09:08:37;96642.75;;;15.58;48.57
73671;BME280;61968;48.178;11.566;2022-10-19T09:11:05;96637.09;;;15.71;48.09
73671;BME280;61968;48.178;11.566;2022-10-19T09:13:39;96639.19;;;15.69;48.08
73671;BME280;61968;48.178;11.566;2022-10-19T09:16:10;96634.13;;;15.68;48.70
73671;BME280;61968;48.178;11.566;2022-10-19T09:18:38;96636.78;;;15.68;48.41
73671;BME280;61968;48.178;11.566;2022-10-19T09:21:11;96636.47;;;15.64;48.42
73671;BME280;61968;48.178;11.566;2022-10-19T09:23:43;96635.72;;;15.69;48.04
73671;BME280;61968;48.178;11.566;2022-10-19T09:26:14;96638.22;;;15.75;47.93
73671;BME280;61968;48.178;11.566;2022-10-19T09:28:46;96634.38;;;15.83;47.80
73671;BME280;61968;48.178;11.566;2022-10-19T09:31:19;96631.97;;;15.81;47.62
73671;BME280;61968;48.178;11.566;2022-10-19T09:33:51;96641.63;;;15.71;48.31
73671;BME280;61968;48.178;11.566;2022-10-19T09:36:21;96640.56;;;15.72;47.95
73671;BME280;61968;48.178;11.566;2022-10-19T09:38:48;96632.66;;;15.77;47.73
73671;BME280;61968;48.178;11.566;2022-10-19T09:41:17;96637.44;;;15.75;47.69
73671;BME280;61968;48.178;11.566;2022-10-19T09:43:47;96640.41;;;15.78;47.69
73671;BME280;61968;48.178;11.566;2022-10-19T09:46:25;96638.66;;;15.84;47.35
73671;BME280;61968;48.178;11.566;2022-10-19T09:48:53;96642.38;;;15.83;47.53
73671;BME280;61968;48.178;11.566;2022-10-19T09:51:21;96646.81;;;15.77;47.59
73671;BME280;61968;48.178;11.566;2022-10-19T09:53:50;96647.28;;;15.74;47.38
73671;BME280;61968;48.178;11.566;2022-10-19T09:56:19;96645.69;;;15.73;47.65
73671;BME280;61968;48.178;11.566;2022-10-19T09:58:47;96652.41;;;15.76;47.63
73671;BME280;61968;48.178;11.566;2022-10-19T10:01:29;96649.25;;;15.79;47.38
73671;BME280;61968;48.178;11.566;2022-10-19T10:04:04;96647.47;;;15.84;46.96
73671;BME280;61968;48.178;11.566;2022-10-19T10:06:32;96640.91;;;15.75;47.32
73671;BME280;61968;48.178;11.566;2022-10-19T10:09:00;96639.28;;;15.74;47.21
73671;BME280;61968;48.178;11.566;2022-10-19T10:11:29;96636.63;;;15.74;47.38
73671;BME280;61968;48.178;11.566;2022-10-19T10:13:58;96628.81;;;15.84;47.27
73671;BME280;61968;48.178;11.566;2022-10-19T10:16:33;96627.75;;;15.85;46.75
73671;BME280;61968;48.178;11.566;2022-10-19T10:19:03;96634.94;;;15.85;47.14
73671;BME280;61968;48.178;11.566;2022-10-19T10:21:33;96630.16;;;15.87;47.05
73671;BME280;61968;48.178;11.566;2022-10-19T10:24:16;96641.56;;;15.82;47.04
73671;BME280;61968;48.178;11.566;2022-10-19T10:26:45;96644.06;;;15.89;46.45
73671;BME280;61968;48.178;11.566;2022-10-19T10:29:17;96637.00;;;15.95;46.36
73671;BME280;61968;48.178;11.566;2022-10-19T10:31:45;96637.81;;;15.95;46.27
73671;BME280;61968;48.178;11.566;2022-10-19T10:34:17;96627.59;;;15.92;46.43
73671;BME280;61968;48.178;11.566;2022-10-19T10:36:48;96627.28;;;15.89;46.59
73671;BME280;61968;48.178;11.566;2022-10-19T10:39:16;96620.19;;;15.94;45.96
73671;BME280;61968;48.178;11.566;2022-10-19T10:41:43;96617.84;;;15.98;45.78
73671;BME280;61968;48.178;11.566;2022-10-19T10:44:17;96615.66;;;15.95;46.11
73671;BME280;61968;48.178;11.566;2022-10-19T10:46:50;96615.66;;;15.95;45.81
73671;BME280;61968;48.178;11.566;2022-10-19T10:49:20;96614.38;;;15.97;45.48
73671;BME280;61968;48.178;11.566;2022-10-19T10:51:53;96625.84;;;15.98;45.55
73671;BME280;61968;48.178;11.566;2022-10-19T10:54:22;96618.22;;;15.90;45.41
73671;BME280;61968;48.178;11.566;2022-10-19T10:57:13;96610.22;;;15.90;45.54
73671;BME280;61968;48.178;11.566;2022-10-19T10:59:48;96604.81;;;15.84;45.97
73671;BME280;61968;48.178;11.566;2022-10-19T11:02:25;96602.38;;;15.83;46.04
73671;BME280;61968;48.178;11.566;2022-10-19T11:04:59;96605.94;;;15.89;46.26
73671;BME280;61968;48.178;11.566;2022-10-19T11:07:31;96602.72;;;16.03;45.59
73671;BME280;61968;48.178;11.566;2022-10-19T11:10:02;96602.91;;;15.97;45.89
73671;BME280;61968;48.178;11.566;2022-10-19T11:12:37;96599.53;;;15.90;45.93
73671;BME280;61968;48.178;11.566;2022-10-19T11:15:12;96595.84;;;15.91;45.87
73671;BME280;61968;48.178;11.566;2022-10-19T11:17:49;96589.63;;;15.85;45.97
73671;BME280;61968;48.178;11.566;2022-10-19T11:20:17;96600.47;;;15.95;45.81
73671;BME280;61968;48.178;11.566;2022-10-19T11:22:48;96587.44;;;15.99;44.91
73671;BME280;61968;48.178;11.566;2022-10-19T11:25:25;96586.06;;;15.96;45.11
73671;BME280;61968;48.178;11.566;2022-10-19T11:28:03;96582.09;;;15.99;44.84
73671;BME280;61968;48.178;11.566;2022-10-19T11:30:49;96591.41;;;15.96;44.67
73671;BME280;61968;48.178;11.566;2022-10-19T11:33:37;96583.88;;;16.10;45.95
73671;BME280;61968;48.178;11.566;2022-10-19T11:36:12;96577.75;;;16.48;44.62
73671;BME280;61968;48.178;11.566;2022-10-19T11:38:52;96578.47;;;16.66;44.03
73671;BME280;61968;48.178;11.566;2022-10-19T11:41:25;96575.72;;;16.77;43.10
73671;BME280;61968;48.178;11.566;2022-10-19T11:44:19;96573.03;;;16.77;42.47
73671;BME280;61968;48.178;11.566;2022-10-19T11:46:58;96554.47;;;16.88;42.44
73671;BME280;61968;48.178;11.566;2022-10-19T11:49:36;96549.72;;;16.95;41.59
73671;BME280;61968;48.178;11.566;2022-10-19T11:52:10;96554.56;;;16.98;41.83
73671;BME280;61968;48.178;11.566;2022-10-19T11:54:52;96550.63;;;16.79;41.57
73671;BME280;61968;48.178;11.566;2022-10-19T11:57:25;96545.59;;;16.60;42.20
73671;BME280;61968;48.178;11.566;2022-10-19T12:00:06;96557.22;;;16.54;42.16
73671;BME280;61968;48.178;11.566;2022-10-19T12:02:55;96550.22;;;16.48;42.56
73671;BME280;61968;48.178;11.566;2022-10-19T12:05:31;96543.34;;;16.52;42.74
73671;BME280;61968;48.178;11.566;2022-10-19T12:08:06;96547.06;;;16.51;42.40
73671;BME280;61968;48.178;11.566;2022-10-19T12:10:44;96535.56;;;16.50;41.46
73671;BME280;61968;48.178;11.566;2022-10-19T12:13:16;96532.66;;;16.52;41.25
73671;BME280;61968;48.178;11.566;2022-10-19T12:15:46;96536.81;;;16.43;41.90
73671;BME280;61968;48.178;11.566;2022-10-19T12:18:27;96531.78;;;16.24;41.93
73671;BME280;61968;48.178;11.566;2022-10-19T12:20:58;96527.28;;;16.08;42.22
73671;BME280;61968;48.178;11.566;2022-10-19T12:23:29;96523.00;;;16.07;42.44
73671;BME280;61968;48.178;11.566;2022-10-19T12:26:01;96518.56;;;16.13;42.02
73671;BME280;61968;48.178;11.566;2022-10-19T12:28:31;96518.25;;;16.09;42.54
73671;BME280;61968;48.178;11.566;2022-10-19T12:30:59;96516.56;;;16.03;42.69
73671;BME280;61968;48.178;11.566;2022-10-19T12:33:30;96509.19;;;16.10;42.83
73671;BME280;61968;48.178;11.566;2022-10-19T12:36:05;96508.69;;;16.13;42.78
73671;BME280;61968;48.178;11.566;2022-10-19T12:38:44;96502.56;;;16.13;42.75
73671;BME280;61968;48.178;11.566;2022-10-19T12:41:20;96503.66;;;16.17;42.79
73671;BME280;61968;48.178;11.566;2022-10-19T12:43:58;96497.44;;;16.11;42.93
73671;BME280;61968;48.178;11.566;2022-10-19T12:46:33;96496.66;;;16.11;42.70
73671;BME280;61968;48.178;11.566;2022-10-19T12:49:34;96482.88;;;16.19;42.50
73671;BME280;61968;48.178;11.566;2022-10-19T12:52:03;96483.50;;;16.26;42.63
73671;BME280;61968;48.178;11.566;2022-10-19T12:54:33;96474.00;;;16.35;42.61
73671;BME280;61968;48.178;11.566;2022-10-19T12:57:19;96467.66;;;16.41;42.54
73671;BME280;61968;48.178;11.566;2022-10-19T12:59:57;96469.59;;;16.46;43.09
73671;BME280;61968;48.178;11.566;2022-10-19T13:02:28;96473.69;;;16.53;42.98
73671;BME280;61968;48.178;11.566;2022-10-19T13:04:55;96468.84;;;16.50;42.17
73671;BME280;61968;48.178;11.566;2022-10-19T13:07:24;96476.72;;;16.62;42.34